createdAt,value
2018-07-16T00:00:23.600Z,20.30
2018-07-16T00:02:52.128Z,20.30
2018-07-16T00:05:20.604Z,20.20
2018-07-16T00:07:49.045Z,20.10
2018-07-16T00:10:17.544Z,20.00
2018-07-16T00:12:46.019Z,20.00
2018-07-16T00:15:14.429Z,19.90
2018-07-16T00:17:42.870Z,19.80
2018-07-16T00:20:11.438Z,19.80
2018-07-16T00:22:39.879Z,19.80
2018-07-16T00:25:08.434Z,19.70
2018-07-16T00:27:36.909Z,19.70
2018-07-16T00:30:05.612Z,19.60
2018-07-16T00:32:34.312Z,19.60
2018-07-16T00:35:02.744Z,19.60
2018-07-16T00:37:31.193Z,19.50
2018-07-16T00:39:59.602Z,19.50
2018-07-16T00:42:28.021Z,19.50
2018-07-16T00:44:56.425Z,19.40
2018-07-16T00:47:24.837Z,19.30
2018-07-16T00:49:53.274Z,19.30
2018-07-16T00:52:21.810Z,19.20
2018-07-16T00:54:50.261Z,19.10
2018-07-16T00:57:18.699Z,19.00
2018-07-16T00:59:47.173Z,18.90
2018-07-16T01:02:15.695Z,18.90
2018-07-16T01:04:44.212Z,18.80
2018-07-16T01:07:12.781Z,18.80
2018-07-16T01:09:41.320Z,18.70
2018-07-16T01:12:09.870Z,18.80
2018-07-16T01:14:38.315Z,18.80
2018-07-16T01:17:06.889Z,18.80
2018-07-16T01:19:35.324Z,18.80
2018-07-16T01:22:04.330Z,18.60
2018-07-16T01:24:33.277Z,18.60
2018-07-16T01:27:02.064Z,18.50
2018-07-16T01:29:30.626Z,18.50
2018-07-16T01:31:59.060Z,18.50
2018-07-16T01:34:27.672Z,18.50
2018-07-16T01:36:56.676Z,18.50
2018-07-16T01:39:25.334Z,18.40
2018-07-16T01:41:53.977Z,18.30
2018-07-16T01:44:22.655Z,18.20
2018-07-16T01:46:51.083Z,18.20
2018-07-16T01:49:19.530Z,18.10
2018-07-16T01:51:47.953Z,18.10
2018-07-16T01:54:16.399Z,18.10
2018-07-16T01:56:44.788Z,18.00
2018-07-16T01:59:13.184Z,18.10
2018-07-16T02:04:09.757Z,17.90
2018-07-16T02:06:38.265Z,17.90
2018-07-16T02:09:06.781Z,17.80
2018-07-16T02:11:35.254Z,17.80
2018-07-16T02:14:03.724Z,17.80
2018-07-16T02:16:32.171Z,17.80
2018-07-16T02:19:00.615Z,17.70
2018-07-16T02:21:29.038Z,17.70
2018-07-16T02:23:57.495Z,17.70
2018-07-16T02:28:54.089Z,17.60
2018-07-16T02:31:22.606Z,17.50
2018-07-16T02:33:51.134Z,17.40
2018-07-16T02:36:19.549Z,17.30
2018-07-16T02:38:47.969Z,17.30
2018-07-16T02:41:16.395Z,17.30
2018-07-16T02:43:44.805Z,17.30
2018-07-16T02:46:13.281Z,17.20
2018-07-16T02:48:41.949Z,17.30
2018-07-16T02:51:10.665Z,17.20
2018-07-16T02:53:39.432Z,17.10
2018-07-16T02:56:07.951Z,17.00
2018-07-16T03:01:04.780Z,17.00
2018-07-16T03:03:33.375Z,17.00
2018-07-16T03:06:01.903Z,17.00
2018-07-16T03:08:30.413Z,16.90
2018-07-16T03:10:58.965Z,16.90
2018-07-16T03:13:27.577Z,16.80
2018-07-16T03:15:56.091Z,16.80
2018-07-16T03:18:24.520Z,16.80
2018-07-16T03:20:53.112Z,16.70
2018-07-16T03:23:21.571Z,16.70
2018-07-16T03:28:26.130Z,16.70
2018-07-16T03:30:54.723Z,16.60
2018-07-16T03:33:23.129Z,16.70
2018-07-16T03:35:51.605Z,16.70
2018-07-16T03:38:20.031Z,16.60
2018-07-16T03:40:48.450Z,16.50
2018-07-16T03:43:17.420Z,16.50
2018-07-16T03:45:45.899Z,16.50
2018-07-16T03:48:14.347Z,16.50
2018-07-16T03:50:42.805Z,16.50
2018-07-16T03:53:11.304Z,16.50
2018-07-16T03:55:39.736Z,16.50
2018-07-16T03:58:08.210Z,16.40
2018-07-16T04:00:36.645Z,16.40
2018-07-16T04:03:05.187Z,16.40
2018-07-16T04:05:33.625Z,16.40
2018-07-16T04:08:02.067Z,16.50
2018-07-16T04:10:30.647Z,16.50
2018-07-16T04:12:59.166Z,16.40
2018-07-16T04:15:27.632Z,16.40
2018-07-16T04:17:56.244Z,16.50
2018-07-16T04:20:24.715Z,16.50
2018-07-16T04:22:53.205Z,16.50
2018-07-16T04:25:22.113Z,16.60
2018-07-16T04:27:50.539Z,17.10
2018-07-16T04:30:18.980Z,18.10
2018-07-16T04:32:47.608Z,18.90
2018-07-16T04:35:16.285Z,19.40
2018-07-16T04:37:44.820Z,19.80
2018-07-16T04:40:13.623Z,19.60
2018-07-16T04:42:42.079Z,18.80
2018-07-16T04:45:10.708Z,18.50
2018-07-16T04:47:39.300Z,19.10
2018-07-16T04:50:07.991Z,19.80
2018-07-16T04:52:36.595Z,20.50
2018-07-16T04:55:05.419Z,21.10
2018-07-16T04:57:33.967Z,21.50
2018-07-16T05:00:02.865Z,21.90
2018-07-16T05:02:31.446Z,22.10
2018-07-16T05:05:00.113Z,22.30
2018-07-16T05:07:28.679Z,22.50
2018-07-16T05:09:57.410Z,22.60
2018-07-16T05:12:25.984Z,22.80
2018-07-16T05:14:54.513Z,23.10
2018-07-16T05:17:23.217Z,23.90
2018-07-16T05:19:51.718Z,24.90
2018-07-16T05:22:20.360Z,24.80
2018-07-16T05:24:48.784Z,24.60
2018-07-16T05:27:17.912Z,24.30
2018-07-16T05:29:46.624Z,24.50
2018-07-16T05:32:15.481Z,24.60
2018-07-16T05:34:43.787Z,25.10
2018-07-16T05:37:13.525Z,25.00
2018-07-16T05:39:42.118Z,25.50
2018-07-16T05:42:10.662Z,25.60
2018-07-16T05:44:39.136Z,26.70
2018-07-16T05:47:08.064Z,26.00
2018-07-16T05:49:36.504Z,26.00
2018-07-16T05:52:04.991Z,25.30
2018-07-16T05:54:33.408Z,25.10
2018-07-16T05:57:02.021Z,26.00
2018-07-16T05:59:30.562Z,24.90
2018-07-16T06:01:59.272Z,26.20
2018-07-16T06:04:27.749Z,27.20
2018-07-16T06:06:56.168Z,25.00
2018-07-16T06:09:25.336Z,25.30
2018-07-16T06:11:53.853Z,26.10
2018-07-16T06:14:22.462Z,26.90
2018-07-16T06:16:51.459Z,26.30
2018-07-16T06:19:19.989Z,26.10
2018-07-16T06:21:48.476Z,25.00
2018-07-16T06:24:18.923Z,25.20
2018-07-16T06:26:47.348Z,25.60
2018-07-16T06:29:15.864Z,24.50
2018-07-16T06:34:12.464Z,26.10
2018-07-16T06:36:40.998Z,27.10
2018-07-16T06:39:09.499Z,28.40
2018-07-16T06:41:38.181Z,27.90
2018-07-16T06:44:06.732Z,28.70
2018-07-16T06:46:35.190Z,28.90
2018-07-16T06:49:03.752Z,28.80
2018-07-16T06:51:32.247Z,29.00
2018-07-16T06:54:00.800Z,29.40
2018-07-16T06:56:29.299Z,27.50
2018-07-16T06:58:57.827Z,25.80
2018-07-16T07:01:26.556Z,27.40
2018-07-16T07:03:54.969Z,27.80
2018-07-16T07:06:23.515Z,27.60
2018-07-16T07:08:51.961Z,28.00
2018-07-16T07:11:20.408Z,29.10
2018-07-16T07:13:48.868Z,29.60
2018-07-16T07:16:17.389Z,30.20
2018-07-16T07:18:45.841Z,29.50
2018-07-16T07:21:14.441Z,28.60
2018-07-16T07:23:43.115Z,29.40
2018-07-16T07:26:11.601Z,29.30
2018-07-16T07:28:40.089Z,28.70
2018-07-16T07:31:08.525Z,29.30
2018-07-16T07:33:36.975Z,28.80
2018-07-16T07:36:05.537Z,29.80
2018-07-16T07:41:02.158Z,28.80
2018-07-16T07:43:31.304Z,29.80
2018-07-16T07:45:59.908Z,30.20
2018-07-16T07:48:28.312Z,31.10
2018-07-16T07:50:56.720Z,30.00
2018-07-16T07:53:25.167Z,28.10
2018-07-16T07:55:53.723Z,29.30
2018-07-16T07:58:22.165Z,29.40
2018-07-16T08:00:50.644Z,30.80
2018-07-16T08:03:19.243Z,31.00
2018-07-16T08:05:53.434Z,30.80
2018-07-16T08:08:22.104Z,31.40
2018-07-16T08:10:50.612Z,31.10
2018-07-16T08:13:19.087Z,30.10
2018-07-16T08:18:18.660Z,27.50
2018-07-16T08:20:47.090Z,27.00
2018-07-16T08:25:44.645Z,30.00
2018-07-16T08:28:13.358Z,31.00
2018-07-16T08:30:41.812Z,31.40
2018-07-16T08:33:10.280Z,30.50
2018-07-16T08:35:38.904Z,30.40
2018-07-16T08:38:07.369Z,30.40
2018-07-16T08:43:04.953Z,31.90
2018-07-16T08:45:33.380Z,30.00
2018-07-16T08:48:01.891Z,28.90
2018-07-16T08:50:30.358Z,30.10
2018-07-16T08:52:58.827Z,30.50
2018-07-16T08:55:27.385Z,31.00
2018-07-16T08:57:55.836Z,31.90
2018-07-16T09:00:24.303Z,32.10
2018-07-16T09:02:52.866Z,32.20
2018-07-16T09:05:21.309Z,33.10
2018-07-16T09:07:49.832Z,31.90
2018-07-16T09:10:18.267Z,31.60
2018-07-16T09:12:46.777Z,31.40
2018-07-16T09:15:15.377Z,33.00
2018-07-16T09:17:47.179Z,33.40
2018-07-16T09:20:15.681Z,33.10
2018-07-16T09:22:44.411Z,33.90
2018-07-16T09:25:12.904Z,33.10
2018-07-16T09:27:41.553Z,33.10
2018-07-16T09:30:10.092Z,33.00
2018-07-16T09:32:38.864Z,33.10
2018-07-16T09:35:07.304Z,31.70
2018-07-16T09:37:35.811Z,33.00
2018-07-16T09:40:04.629Z,32.30
2018-07-16T09:42:33.064Z,31.20
2018-07-16T09:45:01.536Z,30.90
2018-07-16T09:47:30.690Z,31.20
2018-07-16T09:49:59.146Z,31.30
2018-07-16T09:52:27.569Z,32.00
2018-07-16T09:54:56.025Z,30.90
2018-07-16T09:57:24.495Z,31.60
2018-07-16T09:59:52.919Z,32.80
2018-07-16T10:02:21.422Z,33.20
2018-07-16T10:04:49.854Z,33.00
2018-07-16T10:07:18.314Z,33.30
2018-07-16T10:09:46.905Z,33.00
2018-07-16T10:12:15.351Z,33.00
2018-07-16T10:17:11.980Z,32.50
2018-07-16T10:19:40.410Z,31.50
2018-07-16T10:22:09.043Z,31.60
2018-07-16T10:24:37.555Z,31.40
2018-07-16T10:27:06.039Z,32.60
2018-07-16T10:29:34.587Z,32.90
2018-07-16T10:32:03.235Z,32.30
2018-07-16T10:34:31.735Z,32.50
2018-07-16T10:37:00.161Z,31.90
2018-07-16T10:39:28.679Z,32.10
2018-07-16T10:41:57.180Z,32.60
2018-07-16T10:44:25.688Z,33.00
2018-07-16T10:46:54.132Z,32.60
2018-07-16T10:49:22.592Z,32.70
2018-07-16T10:51:51.045Z,32.40
2018-07-16T10:54:19.541Z,31.60
2018-07-16T10:56:48.167Z,31.30
2018-07-16T10:59:16.920Z,30.90
2018-07-16T11:01:45.326Z,32.20
2018-07-16T11:04:13.802Z,32.70
2018-07-16T11:06:42.609Z,32.40
2018-07-16T11:09:11.045Z,31.90
2018-07-16T11:11:39.526Z,31.80
2018-07-16T11:14:08.057Z,32.40
2018-07-16T11:16:37.060Z,32.40
2018-07-16T11:19:05.600Z,32.30
2018-07-16T11:21:34.104Z,32.30
2018-07-16T11:24:02.581Z,31.40
2018-07-16T11:26:31.029Z,31.50
2018-07-16T11:28:59.525Z,32.10
2018-07-16T11:31:28.074Z,31.90
2018-07-16T11:33:56.578Z,31.70
2018-07-16T11:36:25.064Z,31.70
2018-07-16T11:38:53.650Z,32.00
2018-07-16T11:41:22.075Z,31.70
2018-07-16T11:46:18.833Z,32.00
2018-07-16T11:48:47.210Z,32.10
2018-07-16T11:51:15.696Z,31.80
2018-07-16T11:53:44.102Z,32.10
2018-07-16T11:56:12.992Z,31.50
2018-07-16T11:58:41.422Z,30.90
2018-07-16T12:01:16.740Z,31.10
2018-07-16T12:03:45.218Z,31.20
2018-07-16T12:06:18.932Z,31.30
2018-07-16T12:08:47.435Z,31.60
2018-07-16T12:11:15.943Z,31.00
2018-07-16T12:13:44.529Z,30.80
2018-07-16T12:16:13.206Z,30.50
2018-07-16T12:18:41.717Z,30.40
2018-07-16T12:21:10.369Z,30.20
2018-07-16T12:23:39.020Z,30.00
2018-07-16T12:26:07.747Z,29.90
2018-07-16T12:28:36.513Z,29.80
2018-07-16T12:31:04.947Z,29.90
2018-07-16T12:33:33.467Z,29.80
2018-07-16T12:36:02.153Z,30.10
2018-07-16T12:38:30.597Z,29.90
2018-07-16T12:40:59.141Z,30.00
2018-07-16T12:43:27.989Z,30.10
2018-07-16T12:48:25.293Z,29.90
2018-07-16T12:50:53.838Z,29.90
2018-07-16T12:53:22.303Z,30.40
2018-07-16T12:55:50.937Z,30.10
2018-07-16T12:58:19.471Z,30.30
2018-07-16T13:00:47.974Z,30.00
2018-07-16T13:03:19.286Z,30.00
2018-07-16T13:05:47.862Z,30.20
2018-07-16T13:08:16.344Z,29.80
2018-07-16T13:10:45.015Z,29.80
2018-07-16T13:13:13.501Z,30.00
2018-07-16T13:15:42.099Z,30.10
2018-07-16T13:18:10.556Z,29.90
2018-07-16T13:20:39.135Z,30.10
2018-07-16T13:23:07.671Z,30.00
2018-07-16T13:28:04.534Z,30.10
2018-07-16T13:30:33.073Z,30.00
2018-07-16T13:33:01.703Z,30.10
2018-07-16T13:35:30.169Z,30.10
2018-07-16T13:37:58.696Z,30.30
2018-07-16T13:40:27.278Z,30.40
2018-07-16T13:42:55.845Z,30.20
2018-07-16T13:45:24.368Z,30.20
2018-07-16T13:47:52.997Z,30.10
2018-07-16T13:50:21.479Z,30.30
2018-07-16T13:52:50.090Z,30.00
2018-07-16T13:55:18.583Z,30.30
2018-07-16T13:57:47.136Z,30.00
2018-07-16T14:00:15.736Z,30.40
2018-07-16T14:02:44.278Z,30.50
2018-07-16T14:05:12.718Z,30.40
2018-07-16T14:07:41.244Z,30.10
2018-07-16T14:12:37.920Z,30.40
2018-07-16T14:15:06.550Z,30.00
2018-07-16T14:17:35.716Z,29.90
2018-07-16T14:20:04.361Z,30.00
2018-07-16T14:22:32.784Z,30.20
2018-07-16T14:25:01.257Z,30.10
2018-07-16T14:27:29.712Z,30.00
2018-07-16T14:29:58.193Z,29.80
2018-07-16T14:32:27.230Z,30.00
2018-07-16T14:34:55.771Z,30.30
2018-07-16T14:37:24.325Z,30.40
2018-07-16T14:39:52.889Z,30.40
2018-07-16T14:42:21.566Z,30.60
2018-07-16T14:44:50.069Z,30.70
2018-07-16T14:47:18.681Z,30.70
2018-07-16T14:49:47.310Z,30.60
2018-07-16T14:52:15.767Z,30.80
2018-07-16T14:54:44.448Z,30.70
2018-07-16T14:57:12.979Z,30.70
2018-07-16T14:59:41.469Z,30.50
2018-07-16T15:02:10.104Z,30.70
2018-07-16T15:04:38.521Z,30.70
2018-07-16T15:07:07.038Z,30.60
2018-07-16T15:09:35.549Z,30.60
2018-07-16T15:12:04.249Z,30.30
2018-07-16T15:14:32.704Z,30.60
2018-07-16T15:17:01.443Z,30.40
2018-07-16T15:19:30.048Z,30.10
2018-07-16T15:21:58.546Z,30.10
2018-07-16T15:24:27.277Z,30.10
2018-07-16T15:26:55.729Z,30.10
2018-07-16T15:29:24.166Z,30.20
2018-07-16T15:31:52.721Z,30.20
2018-07-16T15:34:21.302Z,29.90
2018-07-16T15:36:49.754Z,29.70
2018-07-16T15:39:18.393Z,29.40
2018-07-16T15:41:46.882Z,29.40
2018-07-16T15:44:15.344Z,29.40
2018-07-16T15:46:43.797Z,29.40
2018-07-16T15:49:12.269Z,29.70
2018-07-16T15:51:41.180Z,30.00
2018-07-16T15:54:10.506Z,30.10
2018-07-16T16:01:35.343Z,30.30
2018-07-16T16:04:03.878Z,30.30
2018-07-16T16:06:32.411Z,30.50
2018-07-16T16:09:00.882Z,30.30
2018-07-16T16:11:30.007Z,30.20
2018-07-16T16:13:58.470Z,29.90
2018-07-16T16:16:27.001Z,29.80
2018-07-16T16:18:55.596Z,29.80
2018-07-16T16:21:24.033Z,29.70
2018-07-16T16:23:52.516Z,29.60
2018-07-16T16:26:21.244Z,29.60
2018-07-16T16:28:49.722Z,29.60
2018-07-16T16:33:46.939Z,29.70
2018-07-16T16:36:15.392Z,29.70
2018-07-16T16:38:43.874Z,29.70
2018-07-16T16:41:12.376Z,29.60
2018-07-16T16:43:41.065Z,29.50
2018-07-16T16:46:09.737Z,29.40
2018-07-16T16:48:38.261Z,29.30
2018-07-16T16:51:06.799Z,29.30
2018-07-16T16:53:35.291Z,29.30
2018-07-16T16:56:04.186Z,29.40
2018-07-16T16:58:33.282Z,29.40
2018-07-16T17:01:02.143Z,29.40
2018-07-16T17:03:31.369Z,29.40
2018-07-16T17:05:59.937Z,29.40
2018-07-16T17:08:28.467Z,29.40
2018-07-16T17:10:56.919Z,29.40
2018-07-16T17:13:25.493Z,29.40
2018-07-16T17:15:54.007Z,29.40
2018-07-16T17:18:22.461Z,29.30
2018-07-16T17:20:51.022Z,29.30
2018-07-16T17:23:19.734Z,29.30
2018-07-16T17:28:16.313Z,29.10
2018-07-16T17:30:44.947Z,29.10
2018-07-16T17:33:13.449Z,29.00
2018-07-16T17:35:42.066Z,29.00
2018-07-16T17:38:10.537Z,28.90
2018-07-16T17:40:39.422Z,28.90
2018-07-16T17:43:07.933Z,28.80
2018-07-16T17:45:36.477Z,28.80
2018-07-16T17:48:05.115Z,28.80
2018-07-16T17:50:33.597Z,28.70
2018-07-16T17:53:02.152Z,28.60
2018-07-16T17:55:30.675Z,28.60
2018-07-16T17:57:59.101Z,28.50
2018-07-16T18:02:55.872Z,28.40
2018-07-16T18:05:24.288Z,28.30
2018-07-16T18:07:52.728Z,28.30
2018-07-16T18:12:49.412Z,28.10
2018-07-16T18:15:18.003Z,28.10
2018-07-16T18:17:46.658Z,28.10
2018-07-16T18:20:15.283Z,28.10
2018-07-16T18:22:43.903Z,28.00
2018-07-16T18:25:12.539Z,27.90
2018-07-16T18:27:41.411Z,27.80
2018-07-16T18:30:10.196Z,27.80
2018-07-16T18:32:39.362Z,27.80
2018-07-16T18:35:08.435Z,27.70
2018-07-16T18:37:36.977Z,27.60
2018-07-16T18:40:05.911Z,27.60
2018-07-16T18:42:34.459Z,27.50
2018-07-16T18:45:03.794Z,27.40
2018-07-16T18:47:32.342Z,27.30
2018-07-16T18:50:01.853Z,27.30
2018-07-16T18:52:30.304Z,27.20
2018-07-16T18:54:59.260Z,27.10
2018-07-16T18:57:27.963Z,27.00
2018-07-16T18:59:56.638Z,26.90
2018-07-16T19:02:25.180Z,26.80
2018-07-16T19:04:53.689Z,26.80
2018-07-16T19:07:23.981Z,26.70
2018-07-16T19:09:53.855Z,26.60
2018-07-16T19:12:23.365Z,26.60
2018-07-16T19:14:52.616Z,26.50
2018-07-16T19:17:22.219Z,26.30
2018-07-16T19:19:50.741Z,26.20
2018-07-16T19:22:19.414Z,26.10
2018-07-16T19:24:47.872Z,26.00
2018-07-16T19:27:16.341Z,25.90
2018-07-16T19:29:44.936Z,25.80
2018-07-16T19:32:13.425Z,25.70
2018-07-16T19:34:41.966Z,25.70
2018-07-16T19:37:10.411Z,25.60
2018-07-16T19:39:38.897Z,25.40
2018-07-16T19:42:07.744Z,25.30
2018-07-16T19:44:36.444Z,25.10
2018-07-16T19:47:04.924Z,25.10
2018-07-16T19:49:33.492Z,25.00
2018-07-16T19:52:01.994Z,24.90
2018-07-16T19:54:30.798Z,24.80
2018-07-16T19:56:59.685Z,24.70
2018-07-16T19:59:28.188Z,24.70
2018-07-16T20:01:56.647Z,24.70
2018-07-16T20:04:25.102Z,24.60
2018-07-16T20:06:57.310Z,24.60
2018-07-16T20:09:26.721Z,24.50
2018-07-16T20:11:55.364Z,24.30
2018-07-16T20:14:24.452Z,24.20
2018-07-16T20:16:52.861Z,24.20
2018-07-16T20:19:21.325Z,24.10
2018-07-16T20:21:49.829Z,24.00
2018-07-16T20:24:18.282Z,23.90
2018-07-16T20:26:47.958Z,23.80
2018-07-16T20:29:16.654Z,23.80
2018-07-16T20:31:45.155Z,23.80
2018-07-16T20:34:13.829Z,23.80
2018-07-16T20:36:42.315Z,23.80
2018-07-16T20:39:10.890Z,23.80
2018-07-16T20:41:39.355Z,23.80
2018-07-16T20:44:07.845Z,23.80
2018-07-16T20:46:36.306Z,23.80
2018-07-16T20:49:04.928Z,23.90
2018-07-16T20:51:33.410Z,24.00
2018-07-16T20:54:01.903Z,23.80
2018-07-16T20:56:30.345Z,23.80
2018-07-16T20:58:58.829Z,23.70
2018-07-16T21:01:27.287Z,23.70
2018-07-16T21:03:55.824Z,23.70
2018-07-16T21:06:24.474Z,23.60
2018-07-16T21:08:53.044Z,23.70
2018-07-16T21:11:21.593Z,23.60
2018-07-16T21:13:50.058Z,23.60
2018-07-16T21:16:19.132Z,23.70
2018-07-16T21:18:54.221Z,23.80
2018-07-16T21:21:22.665Z,23.80
2018-07-16T21:23:51.134Z,23.80
2018-07-16T21:26:19.644Z,23.80
2018-07-16T21:28:48.052Z,23.80
2018-07-16T21:31:16.542Z,23.70
2018-07-16T21:33:45.008Z,23.60
2018-07-16T21:36:13.475Z,23.50
2018-07-16T21:38:41.929Z,23.40
2018-07-16T21:41:10.377Z,23.30
2018-07-16T21:43:38.908Z,23.20
2018-07-16T21:46:07.611Z,23.10
2018-07-16T21:48:36.152Z,23.00
2018-07-16T21:51:04.742Z,22.90
2018-07-16T21:53:33.331Z,22.90
2018-07-16T21:56:03.583Z,22.70
2018-07-16T21:58:32.310Z,22.60
2018-07-16T22:01:00.915Z,22.50
2018-07-16T22:03:29.388Z,22.40
2018-07-16T22:05:57.869Z,22.50
2018-07-16T22:08:26.376Z,22.30
2018-07-16T22:10:54.869Z,22.40
2018-07-16T22:13:23.434Z,22.30
2018-07-16T22:15:51.967Z,22.30
2018-07-16T22:18:20.389Z,22.20
2018-07-16T22:20:48.896Z,22.20
2018-07-16T22:23:17.346Z,22.10
2018-07-16T22:25:45.798Z,22.00
2018-07-16T22:28:14.240Z,21.90
2018-07-16T22:30:42.739Z,21.80
2018-07-16T22:33:11.140Z,21.70
2018-07-16T22:35:39.604Z,21.70
2018-07-16T22:38:08.288Z,21.60
2018-07-16T22:40:36.783Z,21.60
2018-07-16T22:43:05.275Z,21.50
2018-07-16T22:45:33.801Z,21.40
2018-07-16T22:48:02.471Z,21.40
2018-07-16T22:50:30.990Z,21.30
2018-07-16T22:52:59.516Z,21.30
2018-07-16T22:55:27.950Z,21.30
2018-07-16T22:57:56.433Z,21.20
2018-07-16T23:02:53.061Z,21.10
2018-07-16T23:05:21.555Z,21.10
2018-07-16T23:07:50.229Z,21.10
2018-07-16T23:10:18.636Z,21.10
2018-07-16T23:12:47.079Z,21.10
2018-07-16T23:15:15.536Z,21.00
2018-07-16T23:17:43.978Z,21.10
2018-07-16T23:20:12.464Z,21.10
2018-07-16T23:22:50.804Z,21.00
2018-07-16T23:25:19.682Z,21.00
2018-07-16T23:27:48.508Z,20.90
2018-07-16T23:30:17.140Z,20.90
2018-07-16T23:32:45.931Z,20.90
2018-07-16T23:35:15.115Z,20.90
2018-07-16T23:37:43.557Z,20.80
2018-07-16T23:40:12.041Z,20.90
2018-07-16T23:42:40.448Z,20.80
2018-07-16T23:45:09.778Z,20.70
2018-07-16T23:47:38.192Z,20.70
2018-07-16T23:50:06.696Z,20.60
2018-07-16T23:52:35.119Z,20.60
2018-07-16T23:55:03.629Z,20.60
2018-07-16T23:57:32.185Z,20.60
